Time;durP1;ratioP1;P1;durP2;ratioP2;P2;SDS_P1;SDS_P2;PMS_P1;PMS_P2;Temp;Humidity;BMP_temperature;BMP_pressure;BME280_temperature;BME280_humidity;BME280_pressure;Samples;Min_cycle;Max_cycle;Signal;HPM_P1;HPM_P2
2023/09/22 00:00:41;;;;;;;3.57;3.27;;;16.10;99.90;15.50;99265;;;;586798;239;24057;-77
2023/09/22 00:03:07;;;;;;;3.93;3.53;;;16.10;99.90;15.50;99261;;;;586750;243;24072;-78
2023/09/22 00:05:39;;;;;;;3.50;3.20;;;16.10;99.90;15.50;99255;;;;586495;243;24057;-78
2023/09/22 00:08:09;;;;;;;3.90;3.50;;;16.10;99.90;15.50;99258;;;;577216;245;24121;-78
2023/09/22 00:10:36;;;;;;;3.37;3.07;;;16.10;99.90;15.50;99265;;;;576729;245;24089;-78
2023/09/22 00:13:02;;;;;;;3.73;3.27;;;16.10;99.90;15.40;99255;;;;585912;245;24095;-78
2023/09/22 00:15:29;;;;;;;3.73;3.43;;;16.00;99.90;15.40;99258;;;;586271;243;24066;-78
2023/09/22 00:17:57;;;;;;;5.23;4.30;;;16.00;99.90;15.50;99253;;;;586184;244;24110;-78
2023/09/22 00:20:25;;;;;;;4.07;3.43;;;16.00;99.90;15.50;99253;;;;586113;243;24099;-78
2023/09/22 00:22:53;;;;;;;8.93;3.60;;;16.00;99.90;15.50;99253;;;;586232;243;24052;-78
2023/09/22 00:25:22;;;;;;;4.17;3.77;;;16.10;99.90;15.50;99250;;;;586475;243;24099;-77
2023/09/22 00:27:49;;;;;;;4.67;3.30;;;16.10;99.90;15.60;99236;;;;586141;239;24055;-77
2023/09/22 00:30:17;;;;;;;5.37;3.27;;;16.10;99.90;15.60;99237;;;;576987;245;24066;-78
2023/09/22 00:32:45;;;;;;;6.60;3.30;;;16.20;99.90;15.60;99239;;;;585822;243;24074;-78
2023/09/22 00:35:14;;;;;;;3.93;3.40;;;16.20;99.90;15.70;99232;;;;585971;239;24122;-77
2023/09/22 00:37:41;;;;;;;3.67;2.83;;;16.20;99.90;15.70;99231;;;;585892;243;24171;-77
2023/09/22 00:40:09;;;;;;;5.43;3.03;;;16.20;99.90;15.60;99231;;;;574224;244;24119;-78
2023/09/22 00:42:37;;;;;;;5.47;3.90;;;16.20;99.90;15.70;99220;;;;585901;243;24051;-77
2023/09/22 00:45:07;;;;;;;3.40;3.13;;;16.20;99.90;15.70;99223;;;;585837;243;24105;-77
2023/09/22 00:47:32;;;;;;;3.13;2.93;;;16.20;99.90;15.70;99217;;;;576974;243;24062;-79
2023/09/22 00:50:00;;;;;;;3.40;3.10;;;16.20;99.90;15.70;99221;;;;585806;243;24137;-78
2023/09/22 00:52:32;;;;;;;4.60;3.20;;;16.20;99.90;15.70;99221;;;;576564;245;24070;-79
2023/09/22 00:54:57;;;;;;;5.73;3.13;;;16.20;99.90;15.60;99215;;;;585431;245;24138;-78
2023/09/22 00:57:25;;;;;;;3.17;2.87;;;16.20;99.90;15.60;99210;;;;577373;243;24084;-78
2023/09/22 00:59:53;;;;;;;3.20;2.90;;;16.20;99.90;15.60;99212;;;;577296;244;24121;-77
2023/09/22 01:02:22;;;;;;;5.17;3.50;;;16.20;99.90;15.60;99204;;;;578716;245;24129;-77
2023/09/22 01:04:49;;;;;;;3.73;3.43;;;16.20;99.90;15.60;99200;;;;577863;245;24079;-78
2023/09/22 01:07:17;;;;;;;3.23;3.03;;;16.20;99.90;15.60;99196;;;;586651;243;24048;-77
2023/09/22 01:09:45;;;;;;;3.70;3.30;;;16.20;99.90;15.60;99192;;;;586632;243;24103;-79
2023/09/22 01:12:13;;;;;;;3.53;3.03;;;16.20;99.90;15.60;99192;;;;586327;245;24054;-79
2023/09/22 01:14:42;;;;;;;2.77;2.57;;;16.20;99.90;15.50;99192;;;;586409;243;24110;-77
2023/09/22 01:17:09;;;;;;;3.53;3.23;;;16.10;99.90;15.50;99194;;;;586596;243;24082;-77
2023/09/22 01:19:37;;;;;;;3.50;3.20;;;16.10;99.90;15.50;99186;;;;586114;243;24064;-76
2023/09/22 01:22:05;;;;;;;6.63;2.87;;;16.10;99.90;15.50;99188;;;;586231;243;23096;-79
2023/09/22 01:24:32;;;;;;;3.90;3.33;;;16.00;99.90;15.50;99186;;;;586155;239;24097;-79
2023/09/22 01:27:02;;;;;;;4.87;2.77;;;16.10;99.90;15.50;99190;;;;586487;244;24047;-76
2023/09/22 01:29:29;;;;;;;3.57;2.90;;;16.00;99.90;15.40;99181;;;;586422;244;24073;-78
2023/09/22 01:31:57;;;;;;;3.23;2.93;;;15.90;99.90;15.40;99183;;;;586078;243;24083;-77
2023/09/22 01:34:25;;;;;;;3.67;2.80;;;16.00;99.90;15.40;99190;;;;586206;243;24087;-79
2023/09/22 01:36:53;;;;;;;3.00;2.77;;;16.00;99.90;15.30;99188;;;;586011;243;24061;-78
2023/09/22 01:39:22;;;;;;;4.23;2.93;;;15.90;99.90;15.30;99189;;;;586008;239;24075;-77
2023/09/22 01:41:49;;;;;;;4.67;3.17;;;15.90;99.90;15.20;99181;;;;585845;244;24057;-78
2023/09/22 01:44:17;;;;;;;4.03;3.53;;;15.80;99.90;15.20;99191;;;;585803;243;24073;-76
2023/09/22 01:46:47;;;;;;;5.32;4.20;;;15.80;99.90;15.20;99186;;;;580863;243;35153;-77
2023/09/22 01:49:15;;;;;;;4.87;3.50;;;15.70;99.90;15.10;99177;;;;585884;243;24130;-77
2023/09/22 01:51:43;;;;;;;3.40;3.10;;;15.70;99.90;15.10;99178;;;;585959;239;24044;-77
2023/09/22 01:54:11;;;;;;;4.90;3.60;;;15.70;99.90;15.10;99176;;;;585868;243;24098;-77
2023/09/22 01:56:39;;;;;;;4.03;3.30;;;15.60;99.90;15.00;99168;;;;586095;243;24039;-78
2023/09/22 01:59:08;;;;;;;3.90;3.50;;;15.60;99.90;15.00;99157;;;;586248;243;24122;-77
2023/09/22 02:01:36;;;;;;;8.77;3.57;;;15.60;99.90;15.00;99158;;;;585835;243;24168;-77
2023/09/22 02:04:03;;;;;;;3.33;3.03;;;15.60;99.90;15.00;99155;;;;585949;243;24111;-78
2023/09/22 02:06:31;;;;;;;5.27;3.10;;;15.60;99.90;15.00;99149;;;;585856;239;24059;-78
2023/09/22 02:08:59;;;;;;;3.50;3.30;;;15.60;99.90;15.00;99148;;;;585988;243;24046;-78
2023/09/22 02:11:27;;;;;;;8.47;3.43;;;15.60;99.90;15.00;99142;;;;586224;243;24098;-78
2023/09/22 02:13:55;;;;;;;4.80;3.57;;;15.60;99.90;15.00;99138;;;;587378;243;24106;-78
2023/09/22 02:16:23;;;;;;;3.13;2.93;;;15.60;99.90;15.00;99140;;;;586870;243;24112;-78
2023/09/22 02:18:51;;;;;;;3.30;3.10;;;15.60;99.90;15.00;99133;;;;586412;244;24108;-78
2023/09/22 02:21:19;;;;;;;4.47;3.30;;;15.60;99.90;15.00;99126;;;;586630;243;24051;-78
2023/09/22 02:23:47;;;;;;;3.40;3.20;;;15.60;99.90;15.00;99125;;;;586444;243;24111;-78
2023/09/22 02:26:15;;;;;;;5.43;3.67;;;15.60;99.90;15.00;99124;;;;586711;243;24083;-77
2023/09/22 02:28:45;;;;;;;3.50;3.20;;;15.60;99.90;15.00;99126;;;;575035;243;24104;-77
2023/09/22 02:31:15;;;;;;;3.83;3.03;;;15.60;99.90;15.00;99125;;;;586016;239;24126;-78
2023/09/22 02:33:39;;;;;;;3.77;3.33;;;15.50;99.90;15.00;99117;;;;585817;243;24078;-78
2023/09/22 02:36:11;;;;;;;3.53;3.07;;;15.60;99.90;15.00;99114;;;;586103;243;24114;-78
2023/09/22 02:38:36;;;;;;;4.33;3.33;;;15.50;99.90;14.90;99110;;;;585947;239;24071;-77
2023/09/22 02:41:04;;;;;;;3.80;3.50;;;15.50;99.90;14.90;99111;;;;586103;239;24058;-77
2023/09/22 02:43:32;;;;;;;4.30;3.27;;;15.50;99.90;14.90;99103;;;;586600;239;24076;-77
2023/09/22 02:46:00;;;;;;;4.40;3.43;;;15.50;99.90;14.90;99103;;;;586129;244;24054;-77
2023/09/22 02:48:29;;;;;;;4.20;3.07;;;15.40;99.90;14.80;99096;;;;585564;239;24091;-77
2023/09/22 02:50:57;;;;;;;5.50;3.30;;;15.40;99.90;14.80;99108;;;;586004;243;24092;-77
2023/09/22 02:53:25;;;;;;;3.60;3.30;;;15.40;99.90;14.80;99106;;;;584105;239;24104;-78
2023/09/22 02:55:53;;;;;;;3.80;3.27;;;15.40;99.90;14.80;99106;;;;586128;239;24070;-78
2023/09/22 02:58:23;;;;;;;3.20;2.83;;;15.50;99.90;14.70;99108;;;;585910;243;24097;-79
2023/09/22 03:00:48;;;;;;;3.73;3.43;;;15.30;99.90;14.70;99107;;;;586152;244;24112;-77
2023/09/22 03:03:16;;;;;;;3.63;3.33;;;15.30;99.90;14.60;99112;;;;586246;239;24064;-78
2023/09/22 03:05:44;;;;;;;5.33;3.47;;;15.30;99.90;14.60;99113;;;;585799;243;24051;-78
2023/09/22 03:08:12;;;;;;;5.43;3.60;;;15.20;99.90;14.60;99117;;;;585981;243;24062;-78
2023/09/22 03:10:41;;;;;;;3.83;3.53;;;15.20;99.90;14.50;99118;;;;585873;243;24054;-77
2023/09/22 03:13:09;;;;;;;4.13;3.77;;;15.10;99.90;14.50;99117;;;;586255;239;24109;-77
2023/09/22 03:15:38;;;;;;;4.70;3.23;;;15.10;99.90;14.50;99122;;;;585825;239;24065;-77
2023/09/22 03:18:06;;;;;;;5.00;3.33;;;15.10;99.90;14.50;99117;;;;585802;243;24111;-76
2023/09/22 03:20:34;;;;;;;4.60;4.20;;;15.00;99.90;14.40;99115;;;;585965;243;24065;-79
2023/09/22 03:23:03;;;;;;;4.37;3.30;;;15.00;99.90;14.40;99115;;;;586245;243;24051;-78
2023/09/22 03:25:30;;;;;;;3.93;3.63;;;15.00;99.90;14.40;99119;;;;587387;243;24060;-77
2023/09/22 03:27:58;;;;;;;3.57;3.27;;;15.00;99.90;14.40;99110;;;;586935;238;24152;-77
2023/09/22 03:30:26;;;;;;;4.70;4.17;;;14.90;99.90;14.30;99109;;;;587083;243;24063;-77
2023/09/22 03:32:54;;;;;;;5.47;3.80;;;14.90;99.90;14.30;99099;;;;574849;243;24079;-76
2023/09/22 03:35:21;;;;;;;5.57;3.67;;;14.90;99.90;14.30;99098;;;;586412;243;24042;-77
2023/09/22 03:37:51;;;;;;;4.47;3.67;;;14.90;99.90;14.30;99093;;;;577642;245;27259;-77
2023/09/22 03:40:22;;;;;;;5.00;3.50;;;14.90;99.90;14.30;99089;;;;586585;243;24080;-78
2023/09/22 03:42:45;;;;;;;4.13;3.57;;;14.90;99.90;14.30;99087;;;;586443;245;24053;-76
2023/09/22 03:45:14;;;;;;;4.30;3.90;;;14.90;99.90;14.30;99084;;;;586531;243;24054;-76
2023/09/22 03:47:42;;;;;;;5.47;4.10;;;14.90;99.90;14.30;99074;;;;586458;243;24126;-77
2023/09/22 03:50:10;;;;;;;4.33;3.80;;;14.90;99.90;14.30;99073;;;;586276;243;24159;-78
2023/09/22 03:52:38;;;;;;;4.53;3.97;;;14.90;99.90;14.30;99076;;;;586224;243;24097;-77
2023/09/22 03:55:06;;;;;;;4.67;4.00;;;14.90;99.90;14.30;99077;;;;577408;245;24101;-77
2023/09/22 03:57:34;;;;;;;4.53;4.00;;;14.90;99.90;14.30;99084;;;;577273;245;24078;-77
2023/09/22 04:00:15;;;;;;;9.43;3.83;;;14.90;99.90;14.30;99077;;;;585911;243;24090;-78
2023/09/22 04:02:31;;;;;;;5.07;3.77;;;14.90;99.90;14.30;99075;;;;585297;243;24111;-77
2023/09/22 04:04:59;;;;;;;4.87;3.70;;;14.90;99.90;14.30;99076;;;;585919;243;24122;-77
2023/09/22 04:07:27;;;;;;;4.43;3.80;;;14.90;99.90;14.30;99076;;;;586323;239;24096;-78
2023/09/22 04:09:54;;;;;;;5.50;3.90;;;14.90;99.90;14.20;99083;;;;586280;239;24088;-76
2023/09/22 04:12:22;;;;;;;5.50;3.70;;;14.80;99.90;14.20;99072;;;;586343;243;24054;-77
2023/09/22 04:14:50;;;;;;;4.37;3.63;;;14.90;99.90;14.30;99083;;;;586295;243;24113;-76
2023/09/22 04:17:19;;;;;;;5.87;4.03;;;14.90;99.90;14.20;99083;;;;586376;243;24105;-78
2023/09/22 04:19:49;;;;;;;7.53;4.30;;;14.90;99.90;14.30;99079;;;;582975;246;24067;-77
2023/09/22 04:22:16;;;;;;;7.73;4.60;;;14.90;99.90;14.30;99070;;;;577388;244;24066;-77
2023/09/22 04:24:47;;;;;;;4.93;3.57;;;14.90;99.90;14.30;99077;;;;586207;239;24059;-77
2023/09/22 04:27:11;;;;;;;5.97;4.10;;;14.90;99.90;14.30;99073;;;;585876;244;24107;-77
2023/09/22 04:29:38;;;;;;;5.30;3.67;;;14.90;99.90;14.30;99076;;;;586197;245;24091;-79
2023/09/22 04:32:06;;;;;;;8.03;3.80;;;14.90;99.90;14.30;99082;;;;585906;244;24088;-76
2023/09/22 04:34:37;;;;;;;4.40;3.97;;;14.90;99.90;14.30;99073;;;;586087;243;24097;-76
2023/09/22 04:37:05;;;;;;;9.13;4.13;;;14.90;99.90;14.30;99073;;;;586941;244;24093;-77
2023/09/22 04:39:31;;;;;;;6.10;4.40;;;14.90;99.90;14.30;99073;;;;586421;243;24087;-76
2023/09/22 04:41:57;;;;;;;8.23;4.20;;;14.90;99.90;14.40;99076;;;;587062;244;24098;-77
2023/09/22 04:44:25;;;;;;;6.50;5.20;;;15.00;99.90;14.40;99071;;;;581596;239;35174;-77
2023/09/22 04:46:53;;;;;;;6.43;4.87;;;15.00;99.90;14.50;99080;;;;586469;243;25128;-76
2023/09/22 04:49:21;;;;;;;8.47;4.17;;;15.00;99.90;14.50;99082;;;;586578;243;24099;-77
2023/09/22 04:51:49;;;;;;;9.13;4.43;;;15.10;99.90;14.50;99072;;;;586534;243;24073;-77
2023/09/22 04:54:18;;;;;;;5.23;4.10;;;15.10;99.90;14.60;99066;;;;586398;239;24116;-77
2023/09/22 04:56:45;;;;;;;4.40;3.77;;;15.20;99.90;14.60;99058;;;;586209;244;24109;-77
2023/09/22 04:59:16;;;;;;;4.57;3.93;;;15.20;99.90;14.80;99070;;;;586243;243;24060;-77
2023/09/22 05:01:41;;;;;;;4.50;4.07;;;15.30;99.90;14.80;99071;;;;586009;245;24115;-78
2023/09/22 05:04:10;;;;;;;5.20;4.20;;;15.40;99.90;14.90;99072;;;;586473;244;24133;-76
2023/09/22 05:06:36;;;;;;;10.00;4.27;;;15.50;99.90;15.00;99073;;;;586459;245;24098;-77
2023/09/22 05:09:07;;;;;;;8.87;4.63;;;15.50;99.90;15.00;99075;;;;586514;243;24057;-77
2023/09/22 05:11:32;;;;;;;6.90;4.80;;;15.60;99.90;15.10;99079;;;;577339;245;24143;-77
2023/09/22 05:14:00;;;;;;;5.10;4.70;;;15.70;99.90;15.20;99070;;;;586251;243;24133;-76
2023/09/22 05:16:29;;;;;;;5.20;4.43;;;15.90;99.90;15.30;99069;;;;586298;243;24048;-76
2023/09/22 05:18:57;;;;;;;4.90;3.83;;;15.90;99.90;15.40;99067;;;;586312;243;24048;-78
2023/09/22 05:21:25;;;;;;;4.97;4.47;;;16.00;99.90;15.50;99061;;;;586354;243;24111;-76
2023/09/22 05:23:55;;;;;;;7.07;4.53;;;16.00;99.90;15.60;99065;;;;586256;243;24051;-78
2023/09/22 05:26:21;;;;;;;6.50;4.33;;;16.20;99.90;15.70;99069;;;;577386;245;24060;-77
2023/09/22 05:28:51;;;;;;;6.97;4.23;;;16.20;99.90;15.80;99069;;;;577438;245;24063;-77
2023/09/22 05:31:19;;;;;;;6.73;3.40;;;16.40;99.90;16.00;99070;;;;586278;243;24105;-78
2023/09/22 05:33:47;;;;;;;6.93;4.20;;;16.50;99.90;16.60;99067;;;;585932;243;24067;-78
2023/09/22 05:36:16;;;;;;;4.73;4.33;;;18.10;99.90;17.90;99080;;;;586322;239;24052;-77
2023/09/22 05:38:45;;;;;;;4.47;4.07;;;19.50;99.90;19.50;99078;;;;586248;243;24044;-77
2023/09/22 05:41:13;;;;;;;5.20;3.90;;;19.50;99.90;20.90;99079;;;;586226;244;24075;-76
2023/09/22 05:43:40;;;;;;;5.73;3.90;;;21.00;99.90;22.10;99065;;;;586304;243;23159;-77
2023/09/22 05:46:09;;;;;;;4.10;3.63;;;22.20;99.90;23.10;99075;;;;586555;239;24036;-78
2023/09/22 05:48:37;;;;;;;5.53;3.70;;;24.30;99.90;24.10;99086;;;;587712;243;23060;-79
2023/09/22 05:51:05;;;;;;;5.60;3.63;;;24.30;99.90;25.00;99077;;;;587279;243;23080;-77
2023/09/22 05:53:35;;;;;;;5.67;4.10;;;25.30;99.90;25.80;99078;;;;587168;243;23079;-78
2023/09/22 05:56:12;;;;;;;7.40;3.90;;;26.10;99.90;26.70;99078;;;;587039;243;23101;-78
2023/09/22 05:58:41;;;;;;;3.70;3.40;;;27.80;99.90;27.60;99088;;;;577995;245;24118;-78
2023/09/22 06:01:09;;;;;;;3.80;3.50;;;27.80;99.90;28.40;99088;;;;586725;239;25139;-77
2023/09/22 06:03:40;;;;;;;5.18;4.03;;;28.60;99.90;28.60;99093;;;;577506;245;23075;-78
2023/09/22 06:06:11;;;;;;;7.25;3.70;;;29.10;99.90;29.00;99093;;;;577577;245;24146;-79
2023/09/22 06:08:41;;;;;;;7.18;3.90;;;29.40;98.50;29.50;99109;;;;577414;245;23073;-78
2023/09/22 06:11:10;;;;;;;4.43;3.67;;;29.90;97.10;30.30;99097;;;;574663;245;25133;-78
2023/09/22 06:13:41;;;;;;;5.30;3.78;;;30.60;95.00;30.90;99101;;;;577630;245;23082;-78
2023/09/22 06:16:05;;;;;;;4.37;4.07;;;31.20;93.40;31.60;99100;;;;574918;245;24067;-78
2023/09/22 06:18:33;;;;;;;8.50;3.90;;;32.60;88.40;32.50;99109;;;;577088;244;24123;-78
2023/09/22 06:21:02;;;;;;;7.70;3.35;;;32.50;88.10;33.10;99102;;;;577591;245;23236;-77
2023/09/22 06:23:29;;;;;;;5.12;3.60;;;33.30;85.00;33.70;99097;;;;577394;245;23072;-78
2023/09/22 06:26:03;;;;;;;4.30;3.55;;;34.00;79.60;33.80;99092;;;;577294;245;23071;-78
2023/09/22 06:28:31;;;;;;;6.22;3.30;;;34.20;77.10;33.90;99103;;;;577136;245;23113;-78
2023/09/22 06:31:03;;;;;;;7.40;3.60;;;34.30;74.20;32.90;99120;;;;574446;245;23145;-78
2023/09/22 06:33:31;;;;;;;8.45;3.42;;;33.60;74.10;32.00;99110;;;;577347;245;23064;-77
2023/09/22 06:35:59;;;;;;;3.78;3.03;;;32.70;76.00;32.60;99104;;;;585772;245;23092;-78
2023/09/22 06:38:27;;;;;;;10.68;3.75;;;32.90;76.00;33.20;99116;;;;577178;245;23124;-78
2023/09/22 06:40:56;;;;;;;6.50;3.35;;;33.40;74.40;33.70;99119;;;;586276;244;23130;-80
2023/09/22 06:43:24;;;;;;;4.50;3.90;;;34.50;71.40;34.40;99116;;;;586285;243;23085;-78
2023/09/22 06:45:53;;;;;;;7.28;3.05;;;34.50;71.40;35.00;99120;;;;577008;245;23073;-78
2023/09/22 06:48:28;;;;;;;5.22;3.15;;;35.10;69.20;35.70;99129;;;;576886;245;24083;-78
2023/09/22 06:50:57;;;;;;;8.20;2.92;;;35.80;67.60;36.40;99131;;;;576788;245;23084;-78
2023/09/22 06:53:22;;;;;;;6.60;2.97;;;36.50;66.50;36.80;99136;;;;585540;245;23169;-77
2023/09/22 06:56:06;;;;;;;7.85;3.60;;;37.20;61.60;36.90;99143;;;;586080;243;23107;-79
2023/09/22 06:58:32;;;;;;;7.82;3.25;;;37.00;60.60;36.60;99149;;;;577552;245;24143;-78
2023/09/22 07:01:10;;;;;;;7.97;3.58;;;37.00;60.60;36.80;99139;;;;587224;238;23076;-78
2023/09/22 07:03:40;;;;;;;7.57;3.33;;;37.00;60.50;36.70;99142;;;;577491;245;23137;-79
2023/09/22 07:06:05;;;;;;;8.38;3.25;;;37.10;59.70;37.00;99145;;;;586879;239;23115;-77
2023/09/22 07:08:36;;;;;;;7.87;3.30;;;37.20;59.40;36.80;99146;;;;577141;245;23077;-79
2023/09/22 07:11:04;;;;;;;12.50;3.72;;;37.10;59.00;37.30;99157;;;;586122;239;23103;-78
2023/09/22 07:13:29;;;;;;;10.27;4.07;;;37.40;58.90;38.10;99160;;;;572021;245;35152;-78
2023/09/22 07:15:59;;;;;;;9.43;3.62;;;38.10;58.10;38.80;99161;;;;586322;245;23085;-78
2023/09/22 07:18:27;;;;;;;7.87;3.40;;;38.80;57.20;39.60;99150;;;;586371;240;24086;-79
2023/09/22 07:20:55;;;;;;;6.62;3.60;;;39.60;55.90;39.90;99161;;;;586249;243;23126;-79
2023/09/22 07:23:26;;;;;;;8.93;3.65;;;40.10;54.00;40.00;99168;;;;577368;245;23078;-79
2023/09/22 07:26:06;;;;;;;8.05;4.05;;;40.20;53.80;40.10;99150;;;;576906;245;23135;-79
2023/09/22 07:28:34;;;;;;;7.15;3.62;;;40.30;52.90;40.10;99151;;;;586402;244;23114;-79
2023/09/22 07:31:18;;;;;;;10.35;4.00;;;40.30;52.50;40.10;99150;;;;576569;245;23145;-79
2023/09/22 07:33:46;;;;;;;8.90;3.80;;;40.30;52.50;40.50;99149;;;;576028;245;23102;-78
2023/09/22 07:36:10;;;;;;;6.97;3.67;;;40.60;51.60;40.40;99156;;;;585348;245;23178;-78
2023/09/22 07:38:38;;;;;;;6.87;3.70;;;40.70;51.30;40.80;99160;;;;586227;244;23062;-78
2023/09/22 07:41:06;;;;;;;9.38;3.47;;;40.90;51.20;41.10;99156;;;;585930;239;23115;-78
2023/09/22 07:43:35;;;;;;;9.40;4.00;;;41.30;50.50;41.10;99152;;;;585780;243;23056;-78
2023/09/22 07:46:06;;;;;;;5.68;3.67;;;41.60;49.70;41.40;99149;;;;585908;239;24119;-78
2023/09/22 07:48:33;;;;;;;7.22;3.55;;;41.60;49.60;41.10;99162;;;;585389;245;24142;-79
2023/09/22 07:51:02;;;;;;;5.97;3.45;;;41.50;50.40;41.10;99157;;;;585710;239;23121;-78
2023/09/22 07:53:26;;;;;;;8.63;3.85;;;41.50;50.30;41.50;99157;;;;576556;245;24138;-78
2023/09/22 07:55:59;;;;;;;8.35;3.75;;;41.60;49.40;41.50;99158;;;;586020;239;23076;-78
2023/09/22 07:58:25;;;;;;;4.30;3.25;;;41.90;48.60;41.40;99152;;;;576899;243;25254;-78
2023/09/22 08:00:53;;;;;;;9.32;3.58;;;41.70;48.60;41.50;99147;;;;575516;245;23066;-78
2023/09/22 08:03:21;;;;;;;6.65;3.83;;;41.70;48.70;42.10;99156;;;;576585;245;23054;-78
2023/09/22 08:05:52;;;;;;;6.20;3.78;;;42.20;48.90;42.50;99153;;;;586339;243;23058;-79
2023/09/22 08:08:20;;;;;;;8.63;4.05;;;42.80;47.80;42.10;99175;;;;581185;243;35165;-79
2023/09/22 08:10:47;;;;;;;5.60;3.53;;;42.70;47.20;42.00;99166;;;;587073;243;23121;-78
2023/09/22 08:13:16;;;;;;;5.57;3.80;;;42.50;47.70;42.00;99186;;;;587428;243;24106;-78
2023/09/22 08:15:44;;;;;;;6.75;3.60;;;42.40;47.60;41.50;99184;;;;586735;238;23135;-79
2023/09/22 08:18:12;;;;;;;11.10;4.47;;;42.20;47.50;41.20;99171;;;;586598;243;23107;-78
2023/09/22 08:20:41;;;;;;;9.85;3.72;;;42.00;47.90;41.50;99173;;;;586417;245;23065;-79
2023/09/22 08:23:08;;;;;;;7.60;3.62;;;42.00;48.20;42.00;99173;;;;586400;243;23102;-78
2023/09/22 08:25:38;;;;;;;6.07;3.72;;;42.40;47.40;40.90;99177;;;;586600;243;23091;-78
2023/09/22 08:28:04;;;;;;;6.35;4.00;;;40.90;49.50;39.90;99181;;;;586116;239;23084;-78
2023/09/22 08:30:32;;;;;;;6.45;3.35;;;40.90;48.80;40.60;99176;;;;577142;243;24150;-78
2023/09/22 08:33:00;;;;;;;10.98;3.50;;;41.00;49.40;41.80;99178;;;;586198;243;23090;-78
2023/09/22 08:35:28;;;;;;;12.23;3.83;;;42.00;48.40;42.70;99181;;;;586015;240;23072;-79
2023/09/22 08:37:56;;;;;;;10.85;4.20;;;42.90;47.60;43.00;99177;;;;586247;243;23085;-78
2023/09/22 08:40:24;;;;;;;8.25;3.58;;;43.60;46.30;42.90;99172;;;;586100;244;23133;-79
2023/09/22 08:42:54;;;;;;;6.55;3.80;;;43.30;45.70;42.30;99170;;;;586601;243;23113;-78
2023/09/22 08:45:21;;;;;;;9.23;4.10;;;43.30;45.60;42.00;99174;;;;578043;243;23089;-78
2023/09/22 08:47:51;;;;;;;11.70;3.80;;;43.00;46.40;41.90;99169;;;;577300;245;23087;-78
2023/09/22 08:50:16;;;;;;;9.73;3.90;;;42.90;46.30;42.40;99166;;;;577047;245;23068;-79
2023/09/22 08:52:46;;;;;;;9.90;4.15;;;43.10;46.30;42.90;99170;;;;577330;245;23103;-79
2023/09/22 08:55:13;;;;;;;15.45;4.55;;;43.60;46.10;43.60;99171;;;;577280;244;23100;-77
2023/09/22 08:57:44;;;;;;;16.87;4.70;;;45.00;45.90;44.40;99165;;;;577275;245;23126;-77
2023/09/22 09:00:20;;;;;;;11.68;4.28;;;45.00;45.20;44.80;99163;;;;577254;245;23264;-78
2023/09/22 09:02:47;;;;;;;8.70;4.25;;;45.70;43.70;44.40;99151;;;;577420;245;23108;-78
2023/09/22 09:05:30;;;;;;;13.23;4.28;;;45.60;44.00;43.80;99162;;;;585856;243;24208;-78
2023/09/22 09:08:16;;;;;;;10.02;4.40;;;45.10;44.10;43.60;99157;;;;577268;245;24179;-78
2023/09/22 09:10:44;;;;;;;9.75;4.12;;;44.70;44.30;43.50;99153;;;;576509;245;23153;-78
2023/09/22 09:13:12;;;;;;;15.98;4.78;;;44.60;44.60;43.50;99166;;;;576296;245;23099;-80
2023/09/22 09:15:49;;;;;;;10.05;4.70;;;44.60;44.10;42.50;99160;;;;576210;245;23072;-78
2023/09/22 09:18:19;;;;;;;19.10;4.93;;;44.10;44.20;41.60;99171;;;;577553;244;24130;-79
2023/09/22 09:20:47;;;;;;;7.93;5.25;;;43.20;45.60;40.60;99159;;;;586077;243;23069;-79
2023/09/22 09:23:15;;;;;;;10.63;5.28;;;42.20;46.20;39.10;99169;;;;571966;245;35177;-78
2023/09/22 09:25:49;;;;;;;10.18;5.28;;;40.90;47.40;37.30;99165;;;;577787;245;24110;-78
2023/09/22 09:28:16;;;;;;;14.52;4.75;;;39.30;49.00;35.90;99176;;;;586684;243;23080;-77
2023/09/22 09:30:56;;;;;;;15.02;5.28;;;37.60;51.20;35.20;99166;;;;577453;245;23123;-77
2023/09/22 09:33:30;;;;;;;7.65;4.72;;;36.40;53.30;34.90;99174;;;;577598;245;23077;-78
2023/09/22 09:35:56;;;;;;;9.05;4.47;;;35.50;55.50;34.90;99173;;;;585539;245;24134;-79
2023/09/22 09:38:27;;;;;;;13.65;4.22;;;35.50;55.50;35.40;99173;;;;586446;243;24086;-77
2023/09/22 09:40:54;;;;;;;7.80;4.30;;;35.80;55.40;35.60;99170;;;;576973;245;24126;-78
2023/09/22 09:43:23;;;;;;;6.87;4.30;;;36.30;54.50;35.80;99168;;;;586270;243;24134;-78
2023/09/22 09:45:56;;;;;;;11.18;4.45;;;36.30;54.60;35.80;99176;;;;586524;243;23095;-78
2023/09/22 09:48:22;;;;;;;8.02;4.20;;;36.30;54.50;36.30;99163;;;;577426;245;23068;-77
2023/09/22 09:50:51;;;;;;;13.00;4.50;;;36.70;54.70;36.60;99166;;;;586223;245;23076;-79
2023/09/22 09:53:37;;;;;;;13.23;4.82;;;37.20;53.50;36.70;99166;;;;577607;245;24140;-79
2023/09/22 09:56:05;;;;;;;7.22;4.05;;;37.30;53.00;36.90;99173;;;;586368;245;23076;-78
2023/09/22 09:58:33;;;;;;;9.18;4.62;;;37.50;53.40;37.20;99166;;;;577291;243;23071;-78
2023/09/22 10:01:07;;;;;;;10.57;4.50;;;37.80;53.30;37.50;99161;;;;577057;245;23111;-80
2023/09/22 10:03:37;;;;;;;7.22;4.35;;;38.20;52.10;37.10;99159;;;;576909;243;23088;-78
2023/09/22 10:06:06;;;;;;;8.98;4.47;;;38.00;51.90;36.50;99155;;;;576805;245;23088;-81
2023/09/22 10:08:32;;;;;;;7.47;3.70;;;37.60;52.70;36.20;99161;;;;576519;245;23130;-79
2023/09/22 10:11:10;;;;;;;12.32;3.90;;;37.20;52.70;35.70;99147;;;;585873;243;23068;-79
2023/09/22 10:13:38;;;;;;;8.63;4.60;;;36.70;54.30;35.10;99146;;;;585373;245;23113;-79
2023/09/22 10:16:05;;;;;;;10.88;4.25;;;36.10;55.50;34.30;99141;;;;586265;244;23088;-78
2023/09/22 10:18:59;;;;;;;10.10;3.65;;;35.30;56.70;33.70;99143;;;;586350;244;23122;-78
2023/09/22 10:21:38;;;;;;;6.97;3.55;;;34.60;56.80;32.60;99135;;;;576831;245;23107;-78
2023/09/22 10:24:27;;;;;;;8.27;3.72;;;33.60;58.40;31.90;99127;;;;577344;245;23078;-78
2023/09/22 10:27:29;;;;;;;5.12;3.40;;;32.70;60.30;31.20;99121;;;;577087;245;23111;-77
2023/09/22 10:29:35;;;;;;;8.27;3.42;;;32.00;62.10;30.40;99124;;;;573070;245;23084;-78
2023/09/22 10:32:18;;;;;;;5.10;2.97;;;31.20;63.60;29.70;99128;;;;577556;245;23060;-77
2023/09/22 10:34:53;;;;;;;5.72;3.22;;;30.50;65.60;29.40;99132;;;;578945;239;23117;-78
2023/09/22 10:37:23;;;;;;;7.30;3.20;;;29.90;67.90;29.10;99121;;;;586200;243;23107;-77
2023/09/22 10:40:11;;;;;;;7.00;3.70;;;29.50;68.40;28.70;99125;;;;587092;244;23091;-77
2023/09/22 10:42:34;;;;;;;10.57;3.78;;;29.10;69.50;28.30;99129;;;;577286;245;23083;-77
2023/09/22 10:45:05;;;;;;;6.93;3.70;;;28.70;70.50;28.10;99129;;;;577405;245;23101;-77
2023/09/22 10:47:44;;;;;;;5.07;3.47;;;28.40;71.60;27.70;99124;;;;586616;244;23084;-77
2023/09/22 10:50:15;;;;;;;4.78;3.90;;;28.10;72.30;27.40;99136;;;;577408;245;23075;-77
2023/09/22 10:52:49;;;;;;;5.32;2.90;;;27.80;73.30;27.10;99136;;;;577342;245;23080;-77
2023/09/22 10:55:26;;;;;;;8.57;3.30;;;27.50;73.90;26.90;99139;;;;576730;245;24120;-77
2023/09/22 10:57:57;;;;;;;4.73;3.53;;;27.40;75.20;26.80;99134;;;;577142;245;23129;-76
2023/09/22 11:00:25;;;;;;;7.57;3.63;;;27.30;75.70;26.80;99138;;;;586341;243;23086;-77
2023/09/22 11:02:54;;;;;;;7.03;3.47;;;27.20;76.20;26.70;99138;;;;577737;245;23083;-77
2023/09/22 11:05:23;;;;;;;7.90;3.70;;;27.10;76.60;26.70;99149;;;;586295;244;23125;-77
2023/09/22 11:07:49;;;;;;;10.53;3.70;;;27.10;77.20;26.70;99146;;;;585824;245;24168;-79
2023/09/22 11:10:19;;;;;;;5.27;3.27;;;27.10;77.70;26.80;99152;;;;586122;243;23068;-79
2023/09/22 11:12:56;;;;;;;7.07;3.60;;;27.20;78.30;26.80;99146;;;;576392;245;23105;-77
2023/09/22 11:15:24;;;;;;;7.53;4.23;;;27.20;78.30;26.90;99144;;;;577601;245;23077;-77
2023/09/22 11:17:53;;;;;;;4.53;3.43;;;27.20;78.80;26.90;99143;;;;586497;243;23088;-78
2023/09/22 11:20:30;;;;;;;4.57;3.07;;;27.20;79.50;26.80;99137;;;;586515;243;23116;-77
2023/09/22 11:22:49;;;;;;;7.03;3.33;;;27.20;79.50;26.80;99140;;;;576067;245;23080;-78
2023/09/22 11:25:17;;;;;;;27.27;4.23;;;27.20;80.10;26.90;99153;;;;586450;245;23073;-78